Congresbury, United Kingdom
Current Conditions -  °F | °C
As of 1:50 PM on Monday 24 Nov 2014 (Local Time) from EGGD Reporting Station
Few Clouds Few Clouds  
Wind Chill: 46°   Ceiling: Unl
Heat Index: 46°   Visibility: 6mi
Dew Point: 37°   Wind: 2mph
Humidity: 71%   Direction: NA
Pressure: 30.33"   Gusts: NA
Location:  51.37°N, 2.81°W
Report Text: EGGD 241350Z VRB02KT 9999 FEW016 08/03 Q1027
Loading
Personal Weather Stations






























Interactive Weather Map New forecast layout! Learn more

10-Day Weather Forecast

Advertisements
Track Severe Weather on mobile